Time;durP1;ratioP1;P1;durP2;ratioP2;P2;SDS_P1;SDS_P2;PMS_P1;PMS_P2;Temp;Humidity;BMP_temperature;BMP_pressure;BME280_temperature;BME280_humidity;BME280_pressure;Samples;Min_cycle;Max_cycle;Signal;HPM_P1;HPM_P2
2024/04/12 00:01:48;;;;;;;0.10;0.10;;;13.50;1.00;;;;;;5547482;25;20037;-87
2024/04/12 00:04:17;;;;;;;0.15;0.15;;;13.50;1.00;;;;;;5559307;25;20042;-87
2024/04/12 00:06:45;;;;;;;0.10;0.10;;;13.50;1.00;;;;;;5560871;25;20020;-90
2024/04/12 00:09:18;;;;;;;0.10;0.10;;;13.40;1.00;;;;;;5529199;25;20033;-92
2024/04/12 00:11:46;;;;;;;0.10;0.10;;;13.50;1.00;;;;;;5531515;25;20033;-91
2024/04/12 00:14:13;;;;;;;0.20;0.20;;;13.40;1.00;;;;;;5545917;25;20487;-89
2024/04/12 00:16:43;;;;;;;0.20;0.20;;;13.40;1.00;;;;;;5540258;25;20042;-88
2024/04/12 00:19:18;;;;;;;0.20;0.20;;;13.40;1.00;;;;;;5530026;25;20021;-88
2024/04/12 00:21:46;;;;;;;0.20;0.20;;;13.50;1.00;;;;;;5545108;25;20366;-89
2024/04/12 00:24:15;;;;;;;0.10;0.10;;;13.50;1.00;;;;;;5540968;25;20013;-88
2024/04/12 00:26:43;;;;;;;0.10;0.10;;;13.40;1.00;;;;;;5537029;25;20008;-89
2024/04/12 00:29:25;;;;;;;0.20;0.20;;;13.50;1.00;;;;;;5556632;25;20029;-88
2024/04/12 00:31:58;;;;;;;0.10;0.10;;;13.40;1.00;;;;;;5523315;25;20018;-89
2024/04/12 00:34:27;;;;;;;0.10;0.10;;;13.40;1.00;;;;;;5536152;25;20029;-89
2024/04/12 00:37:06;;;;;;;0.10;0.10;;;13.40;1.00;;;;;;5542044;25;20022;-88
2024/04/12 00:39:38;;;;;;;0.10;0.10;;;13.40;1.00;;;;;;5545849;25;19997;-90
2024/04/12 00:42:10;;;;;;;0.20;0.20;;;13.40;1.00;;;;;;5539649;25;20452;-90
2024/04/12 00:44:39;;;;;;;0.10;0.10;;;13.40;1.00;;;;;;5532514;25;20006;-90
2024/04/12 00:47:16;;;;;;;0.20;0.20;;;13.50;1.00;;;;;;5533839;25;20025;-88
2024/04/12 00:49:50;;;;;;;0.20;0.20;;;13.50;1.00;;;;;;5537042;25;20022;-89
2024/04/12 00:52:28;;;;;;;0.10;0.10;;;13.50;1.00;;;;;;5522858;25;20041;-89
2024/04/12 00:55:03;;;;;;;0.10;0.10;;;13.50;1.00;;;;;;5527001;25;20022;-89
2024/04/12 00:57:35;;;;;;;0.10;0.10;;;13.50;1.00;;;;;;5538024;25;20012;-89
2024/04/12 01:00:10;;;;;;;0.10;0.10;;;13.50;1.00;;;;;;5524633;25;20029;-89
2024/04/12 01:02:40;;;;;;;0.10;0.10;;;13.50;1.00;;;;;;5530462;25;20025;-89
2024/04/12 01:05:11;;;;;;;0.20;0.20;;;13.50;1.00;;;;;;5524212;25;20464;-89
2024/04/12 01:07:39;;;;;;;0.20;0.20;;;13.50;1.00;;;;;;5524296;25;20029;-90
2024/04/12 01:10:11;;;;;;;0.10;0.10;;;13.50;1.00;;;;;;5524524;25;20065;-91
2024/04/12 01:12:43;;;;;;;0.17;0.17;;;13.50;1.00;;;;;;5533691;25;20014;-90
2024/04/12 01:15:11;;;;;;;0.15;0.15;;;13.60;1.00;;;;;;5537523;25;20007;-88
2024/04/12 01:17:38;;;;;;;0.10;0.10;;;13.60;1.00;;;;;;5529419;25;20021;-88
2024/04/12 01:20:05;;;;;;;0.10;0.10;;;13.50;1.00;;;;;;5523825;25;20034;-90
2024/04/12 01:22:35;;;;;;;0.10;0.10;;;13.60;1.00;;;;;;5522806;25;20033;-91
2024/04/12 01:25:05;;;;;;;0.10;0.10;;;13.50;1.00;;;;;;5550521;25;20009;-89
2024/04/12 01:27:34;;;;;;;0.10;0.10;;;13.60;1.00;;;;;;5539577;25;20033;-91
2024/04/12 01:30:05;;;;;;;0.10;0.10;;;13.50;1.00;;;;;;5523359;25;20469;-89
2024/04/12 01:32:33;;;;;;;;;;;13.60;1.00;;;;;;5533459;25;20039;-89
2024/04/12 01:35:03;;;;;;;0.10;0.10;;;13.50;1.00;;;;;;5524747;25;19947;-86
2024/04/12 01:37:31;;;;;;;0.10;0.10;;;13.60;1.00;;;;;;5557860;25;20017;-88
2024/04/12 01:40:02;;;;;;;0.10;0.10;;;13.60;1.00;;;;;;5528535;25;20473;-91
2024/04/12 01:42:30;;;;;;;0.10;0.10;;;13.50;1.00;;;;;;5546647;25;20041;-90
2024/04/12 01:45:13;;;;;;;0.10;0.10;;;13.50;1.00;;;;;;5531473;25;20034;-89
2024/04/12 01:47:42;;;;;;;0.17;0.17;;;13.50;1.00;;;;;;5536901;25;20025;-92
2024/04/12 01:50:12;;;;;;;0.10;0.10;;;13.60;1.00;;;;;;5531711;25;20029;-89
2024/04/12 01:52:55;;;;;;;0.10;0.10;;;13.50;1.00;;;;;;5525259;25;20033;-90
2024/04/12 01:55:24;;;;;;;0.10;0.10;;;13.60;1.00;;;;;;5539939;25;20021;-89
2024/04/12 01:57:55;;;;;;;0.13;0.13;;;13.50;1.00;;;;;;5539090;25;20019;-88
2024/04/12 02:00:24;;;;;;;0.10;0.10;;;13.60;1.00;;;;;;5553577;25;20021;-90
2024/04/12 02:02:53;;;;;;;0.10;0.10;;;13.60;1.00;;;;;;5541671;25;20034;-90
2024/04/12 02:05:29;;;;;;;0.10;0.10;;;13.50;1.00;;;;;;5546678;25;20021;-91
2024/04/12 02:07:56;;;;;;;0.10;0.10;;;13.60;1.00;;;;;;5541388;25;20008;-90
2024/04/12 02:10:23;;;;;;;0.20;0.20;;;13.60;1.00;;;;;;5523843;25;20030;-91
2024/04/12 02:12:53;;;;;;;0.20;0.20;;;13.60;1.00;;;;;;5542578;25;20022;-89
2024/04/12 02:15:25;;;;;;;0.15;0.15;;;13.60;1.00;;;;;;5541378;25;20087;-92
2024/04/12 02:17:58;;;;;;;0.10;0.10;;;13.60;1.00;;;;;;5531859;25;20028;-90
2024/04/12 02:20:33;;;;;;;0.10;0.10;;;13.60;1.00;;;;;;5531955;25;20432;-91
2024/04/12 02:23:05;;;;;;;0.17;0.17;;;13.60;1.00;;;;;;5528922;25;20555;-90
2024/04/12 02:25:33;;;;;;;0.10;0.10;;;13.60;1.00;;;;;;5522912;25;20521;-90
2024/04/12 02:28:00;;;;;;;0.20;0.20;;;13.60;1.00;;;;;;5539338;25;20323;-91
2024/04/12 02:30:27;;;;;;;0.03;0.03;;;13.60;1.00;;;;;;5522630;25;20033;-89
2024/04/12 02:32:54;;;;;;;0.20;0.20;;;13.60;1.00;;;;;;5525211;25;20025;-87
2024/04/12 02:35:23;;;;;;;0.15;0.15;;;13.60;1.00;;;;;;5548595;25;20021;-92
2024/04/12 02:37:51;;;;;;;0.15;0.15;;;13.60;1.00;;;;;;5521063;25;20029;-89
2024/04/12 02:40:18;;;;;;;0.10;0.10;;;13.60;1.00;;;;;;5530099;25;20049;-91
2024/04/12 02:42:45;;;;;;;0.10;0.10;;;13.60;1.00;;;;;;5534092;25;20017;-88
2024/04/12 02:45:13;;;;;;;0.10;0.10;;;13.60;1.00;;;;;;5536357;25;20041;-89
2024/04/12 02:47:43;;;;;;;0.10;0.10;;;13.60;1.00;;;;;;5530473;25;20029;-90
2024/04/12 02:50:10;;;;;;;0.10;0.10;;;13.70;1.00;;;;;;5527452;25;20014;-89
2024/04/12 02:52:43;;;;;;;0.10;0.10;;;13.60;1.00;;;;;;5525774;25;20057;-90
2024/04/12 02:55:13;;;;;;;0.10;0.10;;;13.70;1.00;;;;;;5528608;25;20048;-89
2024/04/12 02:57:41;;;;;;;0.10;0.10;;;13.60;1.00;;;;;;5552425;25;20040;-89
2024/04/12 03:00:25;;;;;;;0.10;0.10;;;13.60;1.00;;;;;;5538124;25;20041;-92
2024/04/12 03:02:53;;;;;;;0.10;0.10;;;13.70;1.00;;;;;;5537729;25;20025;-88
2024/04/12 03:05:22;;;;;;;0.20;0.20;;;13.70;1.00;;;;;;5549032;25;20041;-90
2024/04/12 03:07:52;;;;;;;0.10;0.10;;;13.60;1.00;;;;;;5536701;25;19997;-86
2024/04/12 03:10:19;;;;;;;0.10;0.10;;;13.60;1.00;;;;;;5546927;25;20385;-90
2024/04/12 03:12:50;;;;;;;0.10;0.10;;;13.70;1.00;;;;;;5528013;25;20033;-90
2024/04/12 03:15:19;;;;;;;0.10;0.10;;;13.70;1.00;;;;;;5538285;25;20024;-90
2024/04/12 03:17:49;;;;;;;0.10;0.10;;;13.70;1.00;;;;;;5541162;25;20018;-88
2024/04/12 03:20:16;;;;;;;0.20;0.20;;;13.70;1.00;;;;;;5540210;25;20029;-90
2024/04/12 03:22:46;;;;;;;0.10;0.10;;;13.70;1.00;;;;;;5536530;25;20025;-90
2024/04/12 03:25:14;;;;;;;0.10;0.10;;;13.70;1.00;;;;;;5526839;25;20469;-90
2024/04/12 03:27:42;;;;;;;0.10;0.10;;;13.60;1.00;;;;;;5535499;25;19997;-91
2024/04/12 03:30:16;;;;;;;0.10;0.10;;;13.70;1.00;;;;;;5527679;25;20029;-91
2024/04/12 03:32:46;;;;;;;0.10;0.10;;;13.70;1.00;;;;;;5560738;25;20001;-89
2024/04/12 03:35:17;;;;;;;0.10;0.10;;;13.60;1.00;;;;;;5574706;25;20009;-90
2024/04/12 03:38:36;;;;;;;0.20;0.20;;;13.60;1.00;;;;;;5555761;25;20036;-89
2024/04/12 03:40:31;;;;;;;0.10;0.10;;;13.60;1.00;;;;;;5517866;26;20489;-90
2024/04/12 03:43:05;;;;;;;0.10;0.10;;;13.60;1.00;;;;;;5527157;25;20027;-89
2024/04/12 03:45:35;;;;;;;0.10;0.10;;;13.60;1.00;;;;;;5527020;25;20045;-89
2024/04/12 03:48:05;;;;;;;0.10;0.10;;;13.60;1.00;;;;;;5535260;25;20375;-89
2024/04/12 03:50:32;;;;;;;0.10;0.10;;;13.60;1.00;;;;;;5576029;25;20013;-88
2024/04/12 03:53:14;;;;;;;0.10;0.10;;;13.60;1.00;;;;;;5547514;25;20021;-91
2024/04/12 03:55:45;;;;;;;0.10;0.10;;;13.60;1.00;;;;;;5525201;25;20013;-90
2024/04/12 03:58:17;;;;;;;0.10;0.10;;;13.60;1.00;;;;;;5546475;25;20033;-92
2024/04/12 04:00:47;;;;;;;0.10;0.10;;;13.60;1.00;;;;;;5541078;25;20020;-85
2024/04/12 04:03:30;;;;;;;0.10;0.10;;;13.60;1.00;;;;;;5526806;25;20005;-89
2024/04/12 04:05:58;;;;;;;0.20;0.20;;;13.60;1.00;;;;;;5528591;25;20033;-87
2024/04/12 04:08:29;;;;;;;0.10;0.10;;;13.60;1.00;;;;;;5527703;25;20022;-89
2024/04/12 04:10:56;;;;;;;0.10;0.10;;;13.60;1.00;;;;;;5525374;25;20380;-87
2024/04/12 04:13:27;;;;;;;0.10;0.10;;;13.50;1.00;;;;;;5541585;25;20273;-90
2024/04/12 04:15:55;;;;;;;0.10;0.10;;;13.60;1.00;;;;;;5544860;25;20021;-89
2024/04/12 04:18:24;;;;;;;0.20;0.20;;;13.60;1.00;;;;;;5550224;25;20009;-88
2024/04/12 04:20:51;;;;;;;0.10;0.10;;;13.60;1.00;;;;;;5563549;25;20032;-89
2024/04/12 04:23:20;;;;;;;0.10;0.10;;;13.60;1.00;;;;;;5528198;25;20028;-88
2024/04/12 04:25:51;;;;;;;0.10;0.10;;;13.60;1.00;;;;;;5523028;25;20025;-89
2024/04/12 04:28:18;;;;;;;0.13;0.13;;;13.50;1.00;;;;;;5536709;25;20028;-91
2024/04/12 04:30:45;;;;;;;0.20;0.20;;;13.60;1.00;;;;;;5529106;25;20025;-91
2024/04/12 04:33:12;;;;;;;0.10;0.10;;;13.50;1.00;;;;;;5540229;25;20059;-90
2024/04/12 04:35:39;;;;;;;0.10;0.10;;;13.50;1.00;;;;;;5534554;25;20506;-89
2024/04/12 04:38:09;;;;;;;0.15;0.15;;;13.60;1.00;;;;;;5555019;25;20032;-87
2024/04/12 04:40:36;;;;;;;0.30;0.20;;;13.40;1.00;;;;;;5527061;25;20029;-89
2024/04/12 04:43:07;;;;;;;0.10;0.10;;;13.50;1.00;;;;;;5531257;25;20388;-91
2024/04/12 04:45:35;;;;;;;0.10;0.10;;;13.50;1.00;;;;;;5547480;25;20364;-92
2024/04/12 04:48:02;;;;;;;0.13;0.13;;;13.50;1.00;;;;;;5525604;25;20028;-89
2024/04/12 04:50:29;;;;;;;0.10;0.10;;;13.50;1.00;;;;;;5553416;25;20025;-90
2024/04/12 04:52:57;;;;;;;0.10;0.10;;;13.50;1.00;;;;;;5565581;25;20020;-90
2024/04/12 04:55:26;;;;;;;0.10;0.10;;;13.60;1.00;;;;;;5556989;25;20038;-89
2024/04/12 04:57:54;;;;;;;0.10;0.10;;;13.50;1.00;;;;;;5529633;25;20030;-91
2024/04/12 05:00:24;;;;;;;0.10;0.10;;;13.50;1.00;;;;;;5526558;25;20364;-89
2024/04/12 05:02:53;;;;;;;0.10;0.10;;;13.50;1.00;;;;;;5557520;25;20028;-88
2024/04/12 05:05:23;;;;;;;0.10;0.10;;;13.50;1.00;;;;;;5563143;25;20020;-90
2024/04/12 05:07:57;;;;;;;0.10;0.10;;;13.50;1.00;;;;;;5560130;25;20363;-89
2024/04/12 05:10:25;;;;;;;0.20;0.20;;;13.60;1.00;;;;;;5563198;25;20024;-88
2024/04/12 05:12:53;;;;;;;0.10;0.10;;;13.50;1.00;;;;;;5562855;25;20485;-91
2024/04/12 05:18:06;;;;;;;0.20;0.20;;;13.50;1.00;;;;;;5547991;25;20034;-89
2024/04/12 05:20:40;;;;;;;0.10;0.10;;;13.50;1.00;;;;;;5524465;25;20061;-90
2024/04/12 05:23:12;;;;;;;0.10;0.10;;;13.60;1.00;;;;;;5540858;25;20022;-91
2024/04/12 05:25:40;;;;;;;0.17;0.17;;;13.60;1.00;;;;;;5561732;25;20357;-90
2024/04/12 05:28:07;;;;;;;0.17;0.17;;;13.50;1.00;;;;;;5537461;25;20110;-88
2024/04/12 05:30:40;;;;;;;0.20;0.20;;;13.60;1.00;;;;;;5530330;25;20346;-89
2024/04/12 05:33:08;;;;;;;0.10;0.10;;;13.60;1.00;;;;;;5525266;25;20042;-89
2024/04/12 05:35:37;;;;;;;0.10;0.10;;;13.60;1.00;;;;;;5524279;25;20030;-86
2024/04/12 05:38:07;;;;;;;0.10;0.10;;;13.60;1.00;;;;;;5531597;25;20022;-90
2024/04/12 05:40:41;;;;;;;0.10;0.10;;;13.60;1.00;;;;;;5524845;25;20030;-89
2024/04/12 05:43:13;;;;;;;0.15;0.15;;;13.60;1.00;;;;;;5522371;25;20021;-87
2024/04/12 05:45:41;;;;;;;0.10;0.10;;;13.60;1.00;;;;;;5558930;25;20017;-88
2024/04/12 05:48:13;;;;;;;0.10;0.10;;;13.60;1.00;;;;;;5554907;25;20012;-90
2024/04/12 05:50:40;;;;;;;;;;;13.70;1.00;;;;;;5567515;25;20000;-93
2024/04/12 05:53:13;;;;;;;0.10;0.10;;;13.70;1.00;;;;;;5531652;25;19951;-92
2024/04/12 05:55:52;;;;;;;0.10;0.10;;;13.60;1.00;;;;;;5538940;25;20032;-91
2024/04/12 05:58:23;;;;;;;0.10;0.10;;;13.60;1.00;;;;;;5524271;25;20029;-89
2024/04/12 06:00:50;;;;;;;0.10;0.10;;;13.70;1.00;;;;;;5535770;25;20024;-89
2024/04/12 06:03:17;;;;;;;0.10;0.10;;;13.70;1.00;;;;;;5542106;25;20037;-92
2024/04/12 06:05:56;;;;;;;0.20;0.20;;;13.70;1.00;;;;;;5562563;25;20484;-92
2024/04/12 06:08:23;;;;;;;0.10;0.10;;;13.70;1.00;;;;;;5567207;25;20021;-91
2024/04/12 06:10:51;;;;;;;0.10;0.10;;;13.70;1.00;;;;;;5561131;25;20676;-92
2024/04/12 06:13:20;;;;;;;0.10;0.10;;;13.70;1.00;;;;;;5526971;25;20022;-90
2024/04/12 06:15:48;;;;;;;0.10;0.10;;;13.70;1.00;;;;;;5537249;25;20021;-91
2024/04/12 06:18:16;;;;;;;0.10;0.10;;;13.80;1.00;;;;;;5570100;25;20022;-92
2024/04/12 06:20:43;;;;;;;0.10;0.10;;;13.70;1.00;;;;;;5546567;25;20458;-92
2024/04/12 06:23:11;;;;;;;0.10;0.10;;;13.70;1.00;;;;;;5560470;25;20028;-90
2024/04/12 06:25:43;;;;;;;0.10;0.10;;;13.80;1.00;;;;;;5548699;25;20032;-88
2024/04/12 06:28:13;;;;;;;0.10;0.10;;;13.80;1.00;;;;;;5541909;25;20559;-92
2024/04/12 06:30:41;;;;;;;0.20;0.20;;;13.80;1.00;;;;;;5544606;25;20484;-91
2024/04/12 06:33:08;;;;;;;0.10;0.10;;;13.80;1.00;;;;;;5532356;25;20021;-89
2024/04/12 06:35:36;;;;;;;0.10;0.10;;;13.80;1.00;;;;;;5561748;25;20024;-89
2024/04/12 06:38:08;;;;;;;0.10;0.10;;;13.80;1.00;;;;;;5557891;25;20634;-89
2024/04/12 06:40:37;;;;;;;0.10;0.10;;;13.80;1.00;;;;;;5562091;25;20029;-89
2024/04/12 06:43:07;;;;;;;0.10;0.10;;;13.70;1.00;;;;;;5546513;25;20029;-90
2024/04/12 06:45:41;;;;;;;0.10;0.10;;;13.80;1.00;;;;;;5524672;25;20023;-90
2024/04/12 06:48:10;;;;;;;0.10;0.10;;;13.70;1.00;;;;;;5550977;25;20009;-91
2024/04/12 06:50:37;;;;;;;0.10;0.10;;;13.80;1.00;;;;;;5560965;25;20033;-89
2024/04/12 06:53:08;;;;;;;0.10;0.10;;;13.80;1.00;;;;;;5565636;25;20013;-90
2024/04/12 06:55:45;;;;;;;0.10;0.10;;;13.80;1.00;;;;;;5581476;25;19997;-92
2024/04/12 06:58:13;;;;;;;0.10;0.10;;;13.80;1.00;;;;;;5568113;25;20025;-91
2024/04/12 07:00:40;;;;;;;0.10;0.10;;;13.80;1.00;;;;;;5560895;25;20414;-92
2024/04/12 07:03:08;;;;;;;0.10;0.10;;;13.80;1.00;;;;;;5552219;25;20032;-91
2024/04/12 07:05:35;;;;;;;0.10;0.10;;;13.80;1.00;;;;;;5526917;25;20441;-90
2024/04/12 07:08:05;;;;;;;0.13;0.13;;;13.80;1.00;;;;;;5525331;25;20024;-90
2024/04/12 07:10:32;;;;;;;0.10;0.10;;;13.90;1.00;;;;;;5529934;25;20030;-90
2024/04/12 07:13:01;;;;;;;0.10;0.10;;;13.90;1.00;;;;;;5532253;25;20021;-90
2024/04/12 07:15:28;;;;;;;0.20;0.20;;;13.90;1.00;;;;;;5559100;25;20471;-90
2024/04/12 07:17:58;;;;;;;0.20;0.20;;;14.00;1.00;;;;;;5557969;25;20032;-90
2024/04/12 07:20:27;;;;;;;0.10;0.10;;;14.10;1.00;;;;;;5556048;25;20028;-89
2024/04/12 07:22:55;;;;;;;0.10;0.10;;;14.10;1.00;;;;;;5556968;25;20021;-92
2024/04/12 07:25:23;;;;;;;0.05;0.05;;;14.10;1.00;;;;;;5561807;25;20033;-89
2024/04/12 07:27:53;;;;;;;0.20;0.20;;;14.20;1.00;;;;;;5556741;25;20025;-88
2024/04/12 07:30:21;;;;;;;0.10;0.10;;;14.20;1.00;;;;;;5558791;25;20033;-93
2024/04/12 07:32:47;;;;;;;0.10;0.10;;;14.30;1.00;;;;;;5557696;25;20359;-89
2024/04/12 07:35:26;;;;;;;0.10;0.10;;;14.30;1.00;;;;;;5559122;25;20020;-91
2024/04/12 07:37:54;;;;;;;0.10;0.10;;;14.40;1.00;;;;;;5556193;25;20032;-91
2024/04/12 07:40:24;;;;;;;0.10;0.10;;;14.50;1.00;;;;;;5537116;25;20005;-88
2024/04/12 07:42:52;;;;;;;0.10;0.10;;;14.50;1.00;;;;;;5522711;26;20022;-90
2024/04/12 07:45:24;;;;;;;0.10;0.10;;;14.60;1.00;;;;;;5522735;25;20025;-90
2024/04/12 07:48:00;;;;;;;0.10;0.10;;;14.60;1.00;;;;;;5518347;25;20022;-85
2024/04/12 07:50:29;;;;;;;0.10;0.10;;;14.70;1.00;;;;;;5520535;25;20427;-89
2024/04/12 07:53:10;;;;;;;0.10;0.10;;;14.80;1.00;;;;;;5519257;26;20368;-88
2024/04/12 07:55:44;;;;;;;0.20;0.20;;;14.90;1.00;;;;;;5519522;25;20478;-91
2024/04/12 07:58:12;;;;;;;0.10;0.10;;;14.90;1.00;;;;;;5520854;25;20030;-91
2024/04/12 08:00:45;;;;;;;0.17;0.17;;;14.90;1.00;;;;;;5520075;25;20479;-91
2024/04/12 08:03:16;;;;;;;0.20;0.20;;;14.90;1.00;;;;;;5537828;25;20025;-91
2024/04/12 08:06:00;;;;;;;0.20;0.20;;;15.00;1.00;;;;;;5523898;25;20025;-91
2024/04/12 08:08:28;;;;;;;0.20;0.20;;;15.00;1.00;;;;;;5519706;25;20041;-92
2024/04/12 08:11:31;;;;;;;0.15;0.15;;;15.10;1.00;;;;;;5522368;25;20025;-88
2024/04/12 08:14:05;;;;;;;0.10;0.10;;;15.20;1.00;;;;;;5522596;25;20029;-89
2024/04/12 08:16:37;;;;;;;0.20;0.20;;;15.10;1.00;;;;;;5523039;25;20014;-90
2024/04/12 08:19:11;;;;;;;;;;;15.30;1.00;;;;;;5523746;25;20037;-90
2024/04/12 08:21:44;;;;;;;0.13;0.13;;;15.40;1.00;;;;;;5526046;25;19943;-89
2024/04/12 08:24:14;;;;;;;0.20;0.20;;;15.50;1.00;;;;;;5537469;25;20018;-91
2024/04/12 08:26:51;;;;;;;0.10;0.10;;;15.50;1.00;;;;;;5527752;25;20045;-90
2024/04/12 08:29:29;;;;;;;0.10;0.10;;;15.50;1.00;;;;;;5530549;25;20025;-90
2024/04/12 08:32:04;;;;;;;0.10;0.10;;;15.60;1.00;;;;;;5522974;25;20025;-88
2024/04/12 08:34:33;;;;;;;0.20;0.20;;;15.70;1.00;;;;;;5531163;25;20026;-91
2024/04/12 08:37:03;;;;;;;0.10;0.10;;;15.80;1.00;;;;;;5523806;25;20022;-89
2024/04/12 08:39:42;;;;;;;0.20;0.20;;;15.80;1.00;;;;;;5524658;25;20030;-90
2024/04/12 08:42:14;;;;;;;0.20;0.20;;;15.90;1.00;;;;;;5524441;25;20029;-93
2024/04/12 08:44:46;;;;;;;0.10;0.10;;;15.90;1.00;;;;;;5524413;25;20030;-91
2024/04/12 08:47:30;;;;;;;0.20;0.20;;;16.00;1.00;;;;;;5523178;25;20496;-90
2024/04/12 08:50:03;;;;;;;0.20;0.20;;;16.00;1.00;;;;;;5522818;25;20025;-90
2024/04/12 08:52:42;;;;;;;0.20;0.20;;;16.00;1.00;;;;;;5521348;25;20033;-90
2024/04/12 08:55:13;;;;;;;0.10;0.10;;;16.10;1.00;;;;;;5522978;25;20364;-91
2024/04/12 08:57:41;;;;;;;0.20;0.20;;;16.20;1.00;;;;;;5522492;25;20376;-88
2024/04/12 09:00:15;;;;;;;0.20;0.20;;;16.30;1.00;;;;;;5523153;25;20021;-90
2024/04/12 09:02:51;;;;;;;0.10;0.10;;;16.40;1.00;;;;;;5543354;25;20020;-91
2024/04/12 09:05:24;;;;;;;0.20;0.20;;;16.40;1.00;;;;;;5558222;25;20034;-91
2024/04/12 09:07:58;;;;;;;0.10;0.10;;;16.50;1.00;;;;;;5551735;25;20457;-89
2024/04/12 09:10:27;;;;;;;0.10;0.10;;;16.50;1.00;;;;;;5560527;25;19997;-93
2024/04/12 09:12:54;;;;;;;0.10;0.10;;;16.60;1.00;;;;;;5558483;25;20025;-91
2024/04/12 09:15:24;;;;;;;0.20;0.20;;;16.60;1.00;;;;;;5554722;25;20464;-90
2024/04/12 09:18:01;;;;;;;0.10;0.10;;;16.70;1.00;;;;;;5522932;26;20025;-90
2024/04/12 09:20:31;;;;;;;0.10;0.10;;;16.70;1.00;;;;;;5523571;25;20034;-92
2024/04/12 09:23:15;;;;;;;0.20;0.20;;;16.80;1.00;;;;;;5520121;25;20029;-92
2024/04/12 09:25:44;;;;;;;0.20;0.20;;;16.80;1.00;;;;;;5537498;25;20014;-92
2024/04/12 09:28:16;;;;;;;0.20;0.20;;;16.60;1.00;;;;;;5529391;25;20388;-90
2024/04/12 09:33:32;;;;;;;0.20;0.20;;;16.80;1.00;;;;;;5522885;25;20033;-90
2024/04/12 09:36:15;;;;;;;0.20;0.20;;;16.90;1.00;;;;;;5521674;25;20029;-87
2024/04/12 09:38:41;;;;;;;0.20;0.20;;;16.90;1.00;;;;;;5523076;26;20037;-86
2024/04/12 09:41:31;;;;;;;0.20;0.20;;;17.00;1.00;;;;;;5521466;25;20027;-89
2024/04/12 09:43:59;;;;;;;0.10;0.10;;;17.00;1.00;;;;;;5522765;25;20469;-89
2024/04/12 09:46:47;;;;;;;0.20;0.20;;;17.10;1.00;;;;;;5528254;25;20428;-89
2024/04/12 10:39:44;;;;;;;0.17;0.17;;;18.20;1.00;;;;;;5551435;25;20019;-85
2024/04/12 10:42:12;;;;;;;0.20;0.20;;;18.30;1.00;;;;;;5557981;25;20040;-88
2024/04/12 10:44:46;;;;;;;0.20;0.20;;;18.30;1.00;;;;;;5557862;25;20028;-91
2024/04/12 10:47:13;;;;;;;0.20;0.20;;;18.30;1.00;;;;;;5527068;25;20025;-86
2024/04/12 10:49:42;;;;;;;0.20;0.20;;;18.40;1.00;;;;;;5546000;25;20029;-89
2024/04/12 10:52:13;;;;;;;0.20;0.20;;;18.30;1.00;;;;;;5556947;25;20064;-90
2024/04/12 10:54:43;;;;;;;0.13;0.13;;;18.30;1.00;;;;;;5558595;25;20021;-91
2024/04/12 10:57:13;;;;;;;0.20;0.20;;;18.30;1.00;;;;;;5533653;25;20026;-88
2024/04/12 10:59:42;;;;;;;0.10;0.10;;;18.20;1.00;;;;;;5557179;25;20047;-90
2024/04/12 11:02:12;;;;;;;0.10;0.10;;;18.20;1.00;;;;;;5547470;25;20477;-90
2024/04/12 11:07:27;;;;;;;0.20;0.20;;;18.10;1.00;;;;;;5519015;25;20033;-81
2024/04/12 11:10:03;;;;;;;0.20;0.20;;;18.10;1.00;;;;;;5517137;25;20013;-82
2024/04/12 11:12:40;;;;;;;0.10;0.10;;;18.20;1.00;;;;;;5525907;25;20037;-86
2024/04/12 11:32:12;;;;;;;0.20;0.20;;;18.90;1.00;;;;;;5557654;25;20028;-89
2024/04/12 11:34:45;;;;;;;0.17;0.17;;;18.90;1.00;;;;;;5558268;25;20045;-90
2024/04/12 11:37:13;;;;;;;0.20;0.20;;;18.90;1.00;;;;;;5558437;25;20020;-90
2024/04/12 11:39:41;;;;;;;0.10;0.10;;;19.00;1.00;;;;;;5558608;25;20373;-90
2024/04/12 11:42:18;;;;;;;0.10;0.10;;;19.00;1.00;;;;;;5556814;25;20045;-85
2024/04/12 11:44:47;;;;;;;0.20;0.20;;;19.10;1.00;;;;;;5561203;25;20372;-89
2024/04/12 11:47:16;;;;;;;0.13;0.13;;;19.20;1.00;;;;;;5561682;25;20019;-89
2024/04/12 11:49:45;;;;;;;0.20;0.20;;;19.20;1.00;;;;;;5558623;25;20379;-88
2024/04/12 11:52:17;;;;;;;0.10;0.10;;;19.20;1.00;;;;;;5563913;25;20000;-87
2024/04/12 11:54:53;;;;;;;0.20;0.20;;;19.20;1.00;;;;;;5573342;25;20017;-89
2024/04/12 11:57:22;;;;;;;0.20;0.20;;;19.30;1.00;;;;;;5563258;25;20041;-91
2024/04/12 11:59:54;;;;;;;0.20;0.20;;;19.30;1.00;;;;;;5561555;25;20028;-89
2024/04/12 12:02:25;;;;;;;0.20;0.20;;;19.30;1.00;;;;;;5561902;25;20037;-93
2024/04/12 12:04:51;;;;;;;0.20;0.20;;;19.40;1.00;;;;;;5524768;25;20025;-91
2024/04/12 12:07:21;;;;;;;0.20;0.20;;;19.40;1.00;;;;;;5520241;25;20358;-79
2024/04/12 12:09:51;;;;;;;0.20;0.20;;;19.40;1.00;;;;;;5522938;25;20103;-89
2024/04/12 12:12:21;;;;;;;0.20;0.20;;;19.40;1.00;;;;;;5524317;26;20041;-91
2024/04/12 12:14:52;;;;;;;0.20;0.20;;;19.40;1.00;;;;;;5524657;25;20033;-88
2024/04/12 12:17:19;;;;;;;0.20;0.20;;;19.50;1.00;;;;;;5523507;25;20026;-92
2024/04/12 12:19:51;;;;;;;0.20;0.20;;;19.40;1.00;;;;;;5523808;25;20506;-91
2024/04/12 12:22:21;;;;;;;0.20;0.20;;;19.40;1.00;;;;;;5522057;25;20032;-89
2024/04/12 12:24:48;;;;;;;0.20;0.20;;;19.40;1.00;;;;;;5526379;26;20356;-89
2024/04/12 12:27:19;;;;;;;0.20;0.20;;;19.50;1.00;;;;;;5536733;26;20023;-88
2024/04/12 12:29:49;;;;;;;0.20;0.20;;;19.40;1.00;;;;;;5527235;25;20057;-94
2024/04/12 12:32:15;;;;;;;0.20;0.20;;;19.40;1.00;;;;;;5523884;25;20033;-88
2024/04/12 12:34:43;;;;;;;0.20;0.20;;;19.40;1.00;;;;;;5524035;26;20021;-90
2024/04/12 12:37:10;;;;;;;0.20;0.20;;;19.40;1.00;;;;;;5524793;25;20336;-88
2024/04/12 12:39:37;;;;;;;0.20;0.20;;;19.40;1.00;;;;;;5523814;26;20457;-88
2024/04/12 12:42:05;;;;;;;0.17;0.17;;;19.50;1.00;;;;;;5523130;26;20056;-89
2024/04/12 12:44:32;;;;;;;0.20;0.20;;;19.50;1.00;;;;;;5523584;25;20037;-89
2024/04/12 12:46:59;;;;;;;0.20;0.20;;;19.50;1.00;;;;;;5523081;26;20021;-89
2024/04/12 12:49:26;;;;;;;0.20;0.20;;;19.50;1.00;;;;;;5523896;25;20365;-93
2024/04/12 12:51:53;;;;;;;0.20;0.20;;;19.50;1.00;;;;;;5519578;25;20012;-88
2024/04/12 12:54:20;;;;;;;0.20;0.20;;;19.50;1.00;;;;;;5522299;25;20037;-92
2024/04/12 12:56:47;;;;;;;0.10;0.10;;;19.50;1.00;;;;;;5522037;25;20021;-91
2024/04/12 12:59:15;;;;;;;0.20;0.20;;;19.60;1.00;;;;;;5523587;25;20366;-88
2024/04/12 13:01:42;;;;;;;0.20;0.20;;;19.70;1.00;;;;;;5522699;26;20470;-87
2024/04/12 13:04:09;;;;;;;0.10;0.10;;;19.70;1.00;;;;;;5556174;25;20029;-90
2024/04/12 13:06:37;;;;;;;0.20;0.20;;;19.80;1.00;;;;;;5558534;25;20025;-87
2024/04/12 13:09:05;;;;;;;0.10;0.10;;;19.90;1.00;;;;;;5552273;25;20018;-90
2024/04/12 13:11:32;;;;;;;0.20;0.20;;;20.00;1.00;;;;;;5532823;25;20025;-92
2024/04/12 13:13:59;;;;;;;0.20;0.20;;;20.20;1.00;;;;;;5524797;26;20022;-89
2024/04/12 13:16:26;;;;;;;0.20;0.20;;;20.30;1.00;;;;;;5523741;25;20025;-90
2024/04/12 13:18:56;;;;;;;0.20;0.20;;;20.40;1.00;;;;;;5528129;25;20026;-94
2024/04/12 13:21:23;;;;;;;0.20;0.20;;;20.50;1.00;;;;;;5523195;25;20025;-88
2024/04/12 13:23:50;;;;;;;0.20;0.20;;;20.60;1.00;;;;;;5522820;25;20021;-91
2024/04/12 13:26:25;;;;;;;0.20;0.20;;;20.60;1.00;;;;;;5522730;25;20025;-92
2024/04/12 13:28:53;;;;;;;0.20;0.20;;;20.70;1.00;;;;;;5522142;25;20013;-89
2024/04/12 13:31:23;;;;;;;0.20;0.20;;;20.70;1.00;;;;;;5522916;25;20348;-91
2024/04/12 13:33:56;;;;;;;0.20;0.20;;;20.80;1.00;;;;;;5526368;25;20481;-89
2024/04/12 13:36:26;;;;;;;0.20;0.20;;;20.90;1.00;;;;;;5537697;25;20465;-90
2024/04/12 13:38:53;;;;;;;0.20;0.20;;;21.00;1.00;;;;;;5560006;25;20020;-89
2024/04/12 13:41:20;;;;;;;0.20;0.20;;;21.00;1.00;;;;;;5562042;25;20064;-87
2024/04/12 13:43:49;;;;;;;0.20;0.20;;;21.10;1.00;;;;;;5562436;25;20028;-89
2024/04/12 13:51:51;;;;;;;0.40;0.30;;;21.30;1.00;;;;;;5560194;25;20472;-92
2024/04/12 13:54:23;;;;;;;0.20;0.20;;;21.30;1.00;;;;;;5559778;25;20021;-91
2024/04/12 13:56:56;;;;;;;0.20;0.20;;;21.20;1.00;;;;;;5559264;25;20024;-87
2024/04/12 13:59:24;;;;;;;0.20;0.20;;;21.00;1.00;;;;;;5562732;25;20507;-91
2024/04/12 14:01:51;;;;;;;0.20;0.20;;;21.00;1.00;;;;;;5559877;25;20025;-90
2024/04/12 14:04:18;;;;;;;0.20;0.20;;;20.90;1.00;;;;;;5560007;25;20029;-90
2024/04/12 14:06:47;;;;;;;0.10;0.10;;;20.90;1.00;;;;;;5557776;25;20362;-88
2024/04/12 14:09:21;;;;;;;0.17;0.17;;;20.80;1.00;;;;;;5551192;25;20044;-91
2024/04/12 14:11:52;;;;;;;0.20;0.20;;;20.70;1.00;;;;;;5557207;25;20327;-89
2024/04/12 14:14:23;;;;;;;0.30;0.30;;;20.50;1.00;;;;;;5559836;25;20020;-88
2024/04/12 14:16:52;;;;;;;0.20;0.20;;;20.40;1.00;;;;;;5557672;25;20020;-90
2024/04/12 14:19:20;;;;;;;0.20;0.20;;;20.50;1.00;;;;;;5558909;25;20026;-90
2024/04/12 14:21:51;;;;;;;0.20;0.20;;;20.70;1.00;;;;;;5557509;25;20472;-86
2024/04/12 14:27:05;;;;;;;0.17;0.17;;;21.00;1.00;;;;;;5557764;25;20024;-87
2024/04/12 14:29:34;;;;;;;0.20;0.20;;;21.20;1.00;;;;;;5558037;25;20033;-90
2024/04/12 14:32:05;;;;;;;0.20;0.20;;;21.60;1.00;;;;;;5557858;25;20029;-90
2024/04/12 14:34:34;;;;;;;0.20;0.20;;;21.90;1.00;;;;;;5559138;25;20468;-87
2024/04/12 14:37:03;;;;;;;0.20;0.20;;;22.00;1.00;;;;;;5547183;25;20005;-88
2024/04/12 14:39:31;;;;;;;0.20;0.20;;;22.00;1.00;;;;;;5521332;25;20026;-90